Time;durP1;ratioP1;P1;durP2;ratioP2;P2;SDS_P1;SDS_P2;PMS_P1;PMS_P2;Temp;Humidity;BMP_temperature;BMP_pressure;BME280_temperature;BME280_humidity;BME280_pressure;Samples;Min_cycle;Max_cycle;Signal;HPM_P1;HPM_P2
2023/10/04 00:00:15;;;;;;;5.17;2.20;;;;;;;;;;5041470;28;20195;-67
2023/10/04 00:02:45;;;;;;;5.63;2.27;;;;;;;;;;5038757;28;20207;-68
2023/10/04 00:05:15;;;;;;;7.13;2.37;;;;;;;;;;5039226;28;20250;-66
2023/10/04 00:07:42;;;;;;;6.20;2.20;;;;;;;;;;5040831;28;20227;-67
2023/10/04 00:10:10;;;;;;;6.30;2.87;;;;;;;;;;5037242;28;20231;-68
2023/10/04 00:12:37;;;;;;;4.00;2.53;;;;;;;;;;5039469;28;20203;-67
2023/10/04 00:15:05;;;;;;;3.87;2.30;;;;;;;;;;5039996;28;20207;-67
2023/10/04 00:17:32;;;;;;;4.73;2.10;;;;;;;;;;5040317;28;20195;-67
2023/10/04 00:20:03;;;;;;;4.07;2.00;;;;;;;;;;5034547;28;20200;-67
2023/10/04 00:22:30;;;;;;;5.70;2.00;;;;;;;;;;5038612;28;20243;-67
2023/10/04 00:25:03;;;;;;;3.20;2.20;;;;;;;;;;5036961;28;20206;-66
2023/10/04 00:27:30;;;;;;;3.73;2.10;;;;;;;;;;5037751;28;20227;-67
2023/10/04 00:29:57;;;;;;;5.20;2.10;;;;;;;;;;5039920;28;20289;-67
2023/10/04 00:32:26;;;;;;;4.10;2.00;;;;;;;;;;5040254;28;20200;-67
2023/10/04 00:34:54;;;;;;;4.33;2.00;;;;;;;;;;5041339;28;20199;-67
2023/10/04 00:37:24;;;;;;;5.13;2.30;;;;;;;;;;5035153;28;20200;-66
2023/10/04 00:39:51;;;;;;;2.67;1.90;;;;;;;;;;5035529;28;20253;-74
2023/10/04 00:42:20;;;;;;;3.53;2.20;;;;;;;;;;5042964;28;20274;-73
2023/10/04 00:44:47;;;;;;;6.33;2.33;;;;;;;;;;5045533;28;20207;-73
2023/10/04 00:47:16;;;;;;;3.83;2.10;;;;;;;;;;5044227;28;20269;-73
2023/10/04 00:49:45;;;;;;;2.70;1.60;;;;;;;;;;5039523;28;20231;-74
2023/10/04 00:52:13;;;;;;;3.77;2.07;;;;;;;;;;5043286;28;20283;-73
2023/10/04 00:54:41;;;;;;;4.90;2.40;;;;;;;;;;5039701;28;20203;-74
2023/10/04 00:57:10;;;;;;;3.13;2.10;;;;;;;;;;5042977;28;20200;-73
2023/10/04 00:59:37;;;;;;;3.50;2.07;;;;;;;;;;5033834;28;20212;-74
2023/10/04 01:02:04;;;;;;;6.40;2.47;;;;;;;;;;5038545;28;20206;-73
2023/10/04 01:04:31;;;;;;;2.40;2.20;;;;;;;;;;5042494;28;20208;-74
2023/10/04 01:06:59;;;;;;;3.60;2.17;;;;;;;;;;5038423;28;20259;-74
2023/10/04 01:09:26;;;;;;;6.83;2.30;;;;;;;;;;5040097;28;20215;-74
2023/10/04 01:11:55;;;;;;;5.20;2.60;;;;;;;;;;5040375;28;20290;-73
2023/10/04 01:14:25;;;;;;;6.63;2.13;;;;;;;;;;5037771;28;20208;-74
2023/10/04 01:16:54;;;;;;;5.23;2.03;;;;;;;;;;5039793;28;20196;-74
2023/10/04 01:19:22;;;;;;;3.77;2.10;;;;;;;;;;5038148;28;20294;-71
2023/10/04 01:21:49;;;;;;;2.47;2.00;;;;;;;;;;5037163;28;20209;-72
2023/10/04 01:24:19;;;;;;;3.37;2.00;;;;;;;;;;5036273;28;20266;-71
2023/10/04 01:26:46;;;;;;;3.50;2.13;;;;;;;;;;5036774;28;20206;-72
2023/10/04 01:29:15;;;;;;;2.27;2.00;;;;;;;;;;5038952;28;20208;-72
2023/10/04 01:31:43;;;;;;;5.37;2.20;;;;;;;;;;5038263;28;20255;-72
2023/10/04 01:34:13;;;;;;;4.83;2.00;;;;;;;;;;5040971;28;20206;-72
2023/10/04 01:36:41;;;;;;;4.40;2.00;;;;;;;;;;5040803;28;20207;-72
2023/10/04 01:39:19;;;;;;;4.00;2.10;;;;;;;;;;5034917;28;20220;-72
2023/10/04 01:41:49;;;;;;;3.97;2.20;;;;;;;;;;5034724;28;20211;-72
2023/10/04 01:44:16;;;;;;;4.93;2.23;;;;;;;;;;5037743;28;20199;-71
2023/10/04 01:46:43;;;;;;;3.17;2.03;;;;;;;;;;5036936;28;20218;-72
2023/10/04 01:49:12;;;;;;;5.50;1.93;;;;;;;;;;5037161;28;20254;-72
2023/10/04 01:51:42;;;;;;;3.57;1.87;;;;;;;;;;5040357;28;20204;-66
2023/10/04 01:54:10;;;;;;;4.37;1.80;;;;;;;;;;5042260;28;20208;-65
2023/10/04 01:56:38;;;;;;;2.87;1.90;;;;;;;;;;5041627;28;20238;-65
2023/10/04 01:59:07;;;;;;;4.23;2.20;;;;;;;;;;5039720;28;20204;-66
2023/10/04 02:01:34;;;;;;;4.77;2.30;;;;;;;;;;5042800;28;20214;-65
2023/10/04 02:04:04;;;;;;;3.50;2.00;;;;;;;;;;5042002;28;20200;-66
2023/10/04 02:06:31;;;;;;;6.30;2.23;;;;;;;;;;5039028;28;20231;-66
2023/10/04 02:08:58;;;;;;;3.27;1.80;;;;;;;;;;5041231;28;20224;-65
2023/10/04 02:11:25;;;;;;;5.03;2.17;;;;;;;;;;5042384;28;20200;-65
2023/10/04 02:13:52;;;;;;;5.50;2.20;;;;;;;;;;5038722;28;20210;-65
2023/10/04 02:16:21;;;;;;;3.57;2.03;;;;;;;;;;5040863;28;20215;-65
2023/10/04 02:18:48;;;;;;;3.20;2.13;;;;;;;;;;5037836;28;20199;-65
2023/10/04 02:21:17;;;;;;;5.23;2.40;;;;;;;;;;5036808;28;20283;-65
2023/10/04 02:23:45;;;;;;;4.90;2.20;;;;;;;;;;5042789;28;20208;-64
2023/10/04 02:26:12;;;;;;;6.30;2.27;;;;;;;;;;5042277;28;20226;-65
2023/10/04 02:28:40;;;;;;;5.90;2.07;;;;;;;;;;5041449;28;20224;-65
2023/10/04 02:31:07;;;;;;;3.70;2.13;;;;;;;;;;5038760;28;20211;-66
2023/10/04 02:33:38;;;;;;;5.63;2.40;;;;;;;;;;5039872;28;20290;-65
2023/10/04 02:36:06;;;;;;;5.30;2.30;;;;;;;;;;5042198;28;20199;-65
2023/10/04 02:38:35;;;;;;;3.53;2.47;;;;;;;;;;5037235;28;20200;-65
2023/10/04 02:41:05;;;;;;;3.07;2.17;;;;;;;;;;5040810;28;20207;-65
2023/10/04 02:43:32;;;;;;;2.67;2.10;;;;;;;;;;5043039;28;20212;-65
2023/10/04 02:46:00;;;;;;;4.30;2.00;;;;;;;;;;5036843;28;20227;-65
2023/10/04 02:48:30;;;;;;;4.57;2.20;;;;;;;;;;5032441;28;20254;-65
2023/10/04 02:50:58;;;;;;;3.53;2.20;;;;;;;;;;5032877;28;20282;-65
2023/10/04 02:53:27;;;;;;;4.60;2.40;;;;;;;;;;5035248;28;20203;-65
2023/10/04 02:55:55;;;;;;;4.23;2.37;;;;;;;;;;5036093;28;20204;-65
2023/10/04 02:58:22;;;;;;;6.70;2.63;;;;;;;;;;5041964;28;20196;-65
2023/10/04 03:00:50;;;;;;;3.13;2.13;;;;;;;;;;5037102;28;20207;-66
2023/10/04 03:03:22;;;;;;;4.93;2.10;;;;;;;;;;5038697;28;20277;-65
2023/10/04 03:05:51;;;;;;;6.43;2.47;;;;;;;;;;5034591;28;20204;-66
2023/10/04 03:08:19;;;;;;;6.20;2.20;;;;;;;;;;5035772;28;20220;-65
2023/10/04 03:10:51;;;;;;;6.23;2.20;;;;;;;;;;5030924;28;20332;-65
2023/10/04 03:13:24;;;;;;;4.33;2.20;;;;;;;;;;5038640;28;20199;-65
2023/10/04 03:15:52;;;;;;;8.93;2.70;;;;;;;;;;5035634;28;20232;-67
2023/10/04 03:18:20;;;;;;;9.00;2.73;;;;;;;;;;5036711;28;20246;-65
2023/10/04 03:21:08;;;;;;;5.33;2.40;;;;;;;;;;5035232;28;20207;-66
2023/10/04 03:23:40;;;;;;;5.57;2.40;;;;;;;;;;5039357;28;20295;-66
2023/10/04 03:26:07;;;;;;;5.20;2.03;;;;;;;;;;5034973;28;20220;-66
2023/10/04 03:28:37;;;;;;;4.53;2.30;;;;;;;;;;5035592;28;20216;-67
2023/10/04 03:31:04;;;;;;;3.03;2.27;;;;;;;;;;5042744;28;20196;-66
2023/10/04 03:33:32;;;;;;;5.33;2.90;;;;;;;;;;5037368;28;20204;-66
2023/10/04 03:35:59;;;;;;;5.77;2.30;;;;;;;;;;5040044;28;20208;-67
2023/10/04 03:38:26;;;;;;;5.20;2.40;;;;;;;;;;5035503;28;20220;-67
2023/10/04 03:40:56;;;;;;;5.60;2.80;;;;;;;;;;5038752;28;20200;-67
2023/10/04 03:43:24;;;;;;;7.57;2.90;;;;;;;;;;5036629;28;20204;-67
2023/10/04 03:45:51;;;;;;;4.77;2.70;;;;;;;;;;5036232;28;20211;-67
2023/10/04 03:48:19;;;;;;;5.03;2.67;;;;;;;;;;5031482;28;20259;-66
2023/10/04 03:50:46;;;;;;;5.90;2.67;;;;;;;;;;5040110;28;20204;-66
2023/10/04 03:53:13;;;;;;;6.93;2.90;;;;;;;;;;5035335;28;20207;-66
2023/10/04 03:55:42;;;;;;;5.10;2.57;;;;;;;;;;5041098;28;20204;-67
2023/10/04 03:58:12;;;;;;;5.20;2.63;;;;;;;;;;5034347;28;20196;-67
2023/10/04 04:00:39;;;;;;;7.10;2.50;;;;;;;;;;5038217;28;20231;-66
2023/10/04 04:03:06;;;;;;;5.30;2.60;;;;;;;;;;5034182;28;20254;-67
2023/10/04 04:05:38;;;;;;;6.20;2.40;;;;;;;;;;5035912;28;20290;-68
2023/10/04 04:08:06;;;;;;;4.60;2.33;;;;;;;;;;5032099;28;20270;-66
2023/10/04 04:13:38;;;;;;;5.53;2.60;;;;;;;;;;5037903;28;20186;-73
2023/10/04 04:19:09;;;;;;;6.23;2.60;;;;;;;;;;5036036;28;20249;-73
2023/10/04 04:21:36;;;;;;;4.70;2.73;;;;;;;;;;5040144;28;20204;-74
2023/10/04 04:24:19;;;;;;;5.93;2.93;;;;;;;;;;5036035;28;20199;-73
2023/10/04 04:26:49;;;;;;;9.40;2.80;;;;;;;;;;5036174;28;20291;-73
2023/10/04 04:32:26;;;;;;;6.03;2.53;;;;;;;;;;5036197;28;20186;-72
2023/10/04 04:34:54;;;;;;;7.93;2.90;;;;;;;;;;5027973;28;20200;-70
2023/10/04 04:37:26;;;;;;;6.17;3.03;;;;;;;;;;5034299;28;20204;-72
2023/10/04 04:39:54;;;;;;;8.07;2.70;;;;;;;;;;5031677;28;20222;-72
2023/10/04 04:45:26;;;;;;;5.00;3.20;;;;;;;;;;5032265;28;20194;-73
2023/10/04 04:47:57;;;;;;;6.87;2.83;;;;;;;;;;5038539;28;20240;-72
2023/10/04 04:50:27;;;;;;;6.00;2.60;;;;;;;;;;5037724;28;20215;-74
2023/10/04 04:52:55;;;;;;;7.17;3.30;;;;;;;;;;5035449;28;20202;-73
2023/10/04 04:55:26;;;;;;;9.47;2.90;;;;;;;;;;5034700;28;20192;-73
2023/10/04 04:57:56;;;;;;;4.87;2.57;;;;;;;;;;5038081;28;20213;-75
2023/10/04 05:03:08;;;;;;;6.80;2.77;;;;;;;;;;5032559;28;20208;-72
2023/10/04 05:05:36;;;;;;;4.27;2.40;;;;;;;;;;5041286;28;20204;-72
2023/10/04 05:08:04;;;;;;;5.73;3.10;;;;;;;;;;5046026;28;20191;-74
2023/10/04 05:10:38;;;;;;;4.27;2.60;;;;;;;;;;5042069;28;20204;-73
2023/10/04 05:13:09;;;;;;;5.50;2.77;;;;;;;;;;5039763;28;20204;-73
2023/10/04 05:15:38;;;;;;;5.77;3.10;;;;;;;;;;5042796;28;20208;-74
2023/10/04 05:18:15;;;;;;;6.20;2.70;;;;;;;;;;5039952;28;20203;-74
2023/10/04 05:20:45;;;;;;;7.97;2.70;;;;;;;;;;5037849;28;20212;-75
2023/10/04 05:23:12;;;;;;;6.57;3.90;;;;;;;;;;5038272;28;20227;-73
2023/10/04 05:25:40;;;;;;;7.50;2.90;;;;;;;;;;5031891;28;20588;-74
2023/10/04 05:28:11;;;;;;;7.73;3.07;;;;;;;;;;5042050;28;20204;-73
2023/10/04 05:30:39;;;;;;;6.93;3.10;;;;;;;;;;5040684;28;20230;-73
2023/10/04 05:33:13;;;;;;;6.27;2.93;;;;;;;;;;5036153;28;20207;-73
2023/10/04 05:35:41;;;;;;;7.07;2.80;;;;;;;;;;5041773;28;20203;-73
2023/10/04 05:38:11;;;;;;;9.00;2.90;;;;;;;;;;5040604;28;20215;-73
2023/10/04 05:40:39;;;;;;;5.40;2.63;;;;;;;;;;5035965;28;20204;-73
2023/10/04 05:43:08;;;;;;;6.07;2.80;;;;;;;;;;5039856;28;20277;-72
2023/10/04 05:45:36;;;;;;;4.93;2.57;;;;;;;;;;5041832;28;20217;-73
2023/10/04 05:48:04;;;;;;;4.03;2.17;;;;;;;;;;5040828;28;20236;-73
2023/10/04 05:50:32;;;;;;;3.57;2.20;;;;;;;;;;5037645;28;20204;-71
2023/10/04 05:53:04;;;;;;;4.97;2.20;;;;;;;;;;5035055;28;20211;-73
2023/10/04 05:55:33;;;;;;;2.37;1.90;;;;;;;;;;5039603;28;20280;-73
2023/10/04 05:58:00;;;;;;;3.57;1.97;;;;;;;;;;5036723;28;20231;-73
2023/10/04 06:00:28;;;;;;;3.13;2.07;;;;;;;;;;5044978;28;20197;-73
2023/10/04 06:02:56;;;;;;;3.57;1.90;;;;;;;;;;5039418;28;20211;-73
2023/10/04 06:05:23;;;;;;;5.43;2.07;;;;;;;;;;5041124;28;20203;-73
2023/10/04 06:07:51;;;;;;;4.43;2.30;;;;;;;;;;5045254;28;20215;-73
2023/10/04 06:10:19;;;;;;;4.30;2.67;;;;;;;;;;5038413;28;20226;-74
2023/10/04 06:12:48;;;;;;;6.23;3.40;;;;;;;;;;5038235;28;20216;-73
2023/10/04 06:15:16;;;;;;;5.57;3.20;;;;;;;;;;5041668;28;20250;-74
2023/10/04 06:17:45;;;;;;;5.43;3.37;;;;;;;;;;5033560;28;20212;-74
2023/10/04 06:22:59;;;;;;;7.60;3.80;;;;;;;;;;5042074;28;20214;-73
2023/10/04 06:25:29;;;;;;;10.20;4.60;;;;;;;;;;5035765;28;20319;-74
2023/10/04 06:27:58;;;;;;;7.23;4.17;;;;;;;;;;5043004;28;20204;-73
2023/10/04 06:30:28;;;;;;;9.00;4.40;;;;;;;;;;5039681;28;20219;-74
2023/10/04 06:32:56;;;;;;;5.37;3.67;;;;;;;;;;5043079;28;20215;-74
2023/10/04 06:35:24;;;;;;;10.20;4.03;;;;;;;;;;5041966;28;20211;-73
2023/10/04 06:37:52;;;;;;;8.67;4.20;;;;;;;;;;5041057;28;20239;-73
2023/10/04 06:40:21;;;;;;;9.93;4.20;;;;;;;;;;5040138;28;20285;-73
2023/10/04 06:42:51;;;;;;;7.63;3.87;;;;;;;;;;5041504;28;20295;-73
2023/10/04 06:45:20;;;;;;;9.93;4.33;;;;;;;;;;5037489;28;20208;-74
2023/10/04 06:47:49;;;;;;;7.17;3.90;;;;;;;;;;5041623;28;20203;-71
2023/10/04 06:50:20;;;;;;;6.90;4.37;;;;;;;;;;5040787;28;20301;-74
2023/10/04 06:52:48;;;;;;;11.03;4.80;;;;;;;;;;5038938;28;20204;-74
2023/10/04 06:55:15;;;;;;;6.47;4.20;;;;;;;;;;5040645;28;20260;-74
2023/10/04 06:57:43;;;;;;;10.50;4.60;;;;;;;;;;5042388;28;20199;-74
2023/10/04 07:00:15;;;;;;;14.20;4.93;;;;;;;;;;5045323;28;20200;-73
2023/10/04 07:02:45;;;;;;;10.40;5.07;;;;;;;;;;5040976;28;20314;-73
2023/10/04 07:05:16;;;;;;;14.57;5.57;;;;;;;;;;5039107;28;20239;-72
2023/10/04 07:07:46;;;;;;;8.83;5.03;;;;;;;;;;5046556;28;20218;-74
2023/10/04 07:10:20;;;;;;;8.07;5.00;;;;;;;;;;5040249;28;20323;-73
2023/10/04 07:12:48;;;;;;;11.80;5.10;;;;;;;;;;5043512;28;20250;-74
2023/10/04 07:15:16;;;;;;;8.83;5.50;;;;;;;;;;5034048;28;20302;-74
2023/10/04 07:17:47;;;;;;;14.07;5.40;;;;;;;;;;5036686;28;20203;-74
2023/10/04 07:20:15;;;;;;;6.87;4.63;;;;;;;;;;5031007;28;20244;-74
2023/10/04 07:22:43;;;;;;;10.73;4.87;;;;;;;;;;5038212;28;20289;-74
2023/10/04 07:25:12;;;;;;;7.77;4.43;;;;;;;;;;5039909;28;20211;-74
2023/10/04 07:27:39;;;;;;;8.40;4.63;;;;;;;;;;5038286;28;20196;-73
2023/10/04 07:30:07;;;;;;;7.90;4.80;;;;;;;;;;5037789;28;20216;-74
2023/10/04 07:32:35;;;;;;;12.73;4.90;;;;;;;;;;5036839;28;20207;-74
2023/10/04 07:35:06;;;;;;;11.10;4.80;;;;;;;;;;5035366;28;20204;-73
2023/10/04 07:37:36;;;;;;;10.90;4.57;;;;;;;;;;5042816;28;20214;-74
2023/10/04 07:40:09;;;;;;;6.97;4.07;;;;;;;;;;5038007;28;20203;-73
2023/10/04 07:42:36;;;;;;;8.20;4.50;;;;;;;;;;5041294;28;20227;-75
2023/10/04 07:45:04;;;;;;;7.17;4.87;;;;;;;;;;5039038;28;20258;-74
2023/10/04 07:47:31;;;;;;;7.87;4.13;;;;;;;;;;5033719;28;20270;-73
2023/10/04 07:49:58;;;;;;;7.47;4.20;;;;;;;;;;5032168;28;20220;-75
2023/10/04 07:52:27;;;;;;;6.87;4.40;;;;;;;;;;5035606;28;20204;-73
2023/10/04 07:54:59;;;;;;;9.63;4.90;;;;;;;;;;5035547;28;20226;-73
2023/10/04 07:57:27;;;;;;;7.60;3.90;;;;;;;;;;5036479;28;20208;-74
2023/10/04 07:59:57;;;;;;;6.17;4.50;;;;;;;;;;5038298;28;20212;-73
2023/10/04 08:02:24;;;;;;;6.43;4.37;;;;;;;;;;5039121;28;20200;-72
2023/10/04 08:04:51;;;;;;;13.40;4.90;;;;;;;;;;5038010;28;20224;-72
2023/10/04 08:07:18;;;;;;;7.57;4.50;;;;;;;;;;5040190;28;20204;-73
2023/10/04 08:09:48;;;;;;;8.27;4.13;;;;;;;;;;5041997;28;20223;-72
2023/10/04 08:12:15;;;;;;;8.17;4.40;;;;;;;;;;5034912;28;20214;-72
2023/10/04 08:14:42;;;;;;;7.27;5.07;;;;;;;;;;5039646;28;20218;-71
2023/10/04 08:17:10;;;;;;;8.77;4.90;;;;;;;;;;5040092;28;20211;-73
2023/10/04 08:19:37;;;;;;;7.93;4.47;;;;;;;;;;5035554;28;20233;-72
2023/10/04 08:22:04;;;;;;;7.13;4.80;;;;;;;;;;5036119;28;20252;-73
2023/10/04 08:24:31;;;;;;;7.93;4.60;;;;;;;;;;5036142;28;20207;-75
2023/10/04 08:27:01;;;;;;;8.77;4.83;;;;;;;;;;5042114;28;20235;-73
2023/10/04 08:29:29;;;;;;;10.67;4.67;;;;;;;;;;5034293;28;20245;-74
2023/10/04 08:31:56;;;;;;;8.10;4.90;;;;;;;;;;5034149;28;20201;-73
2023/10/04 08:34:24;;;;;;;8.73;4.23;;;;;;;;;;5039716;28;20261;-71
2023/10/04 08:36:52;;;;;;;8.30;4.17;;;;;;;;;;5035039;28;20282;-73
2023/10/04 08:39:20;;;;;;;6.90;3.90;;;;;;;;;;5041720;28;20211;-73
2023/10/04 08:41:48;;;;;;;9.30;4.40;;;;;;;;;;5035577;28;20204;-73
2023/10/04 08:44:17;;;;;;;8.97;4.20;;;;;;;;;;5040980;28;20199;-73
2023/10/04 08:46:44;;;;;;;8.73;5.80;;;;;;;;;;5036796;28;20207;-73
2023/10/04 08:49:12;;;;;;;7.37;4.30;;;;;;;;;;5035252;28;20281;-73
2023/10/04 08:51:48;;;;;;;9.93;4.27;;;;;;;;;;5033164;28;20305;-72
2023/10/04 08:54:19;;;;;;;7.83;3.87;;;;;;;;;;5036276;28;20199;-73
2023/10/04 08:56:49;;;;;;;9.60;3.30;;;;;;;;;;5024980;28;20214;-72
2023/10/04 08:59:18;;;;;;;7.63;4.23;;;;;;;;;;5037437;28;20208;-73
2023/10/04 09:01:47;;;;;;;6.07;3.93;;;;;;;;;;5040524;28;20519;-73
2023/10/04 09:04:15;;;;;;;5.20;3.67;;;;;;;;;;5044518;28;20199;-73
2023/10/04 09:06:42;;;;;;;6.00;3.97;;;;;;;;;;5050287;28;20238;-71
2023/10/04 09:09:11;;;;;;;5.70;3.70;;;;;;;;;;5048091;28;20211;-72
2023/10/04 09:11:38;;;;;;;8.07;4.43;;;;;;;;;;5043325;28;20294;-65
2023/10/04 09:14:06;;;;;;;12.93;4.50;;;;;;;;;;5042747;28;20202;-65
2023/10/04 09:16:34;;;;;;;6.33;3.97;;;;;;;;;;5048547;28;20200;-66
2023/10/04 09:19:08;;;;;;;6.73;3.67;;;;;;;;;;5038968;28;20203;-65
2023/10/04 09:21:38;;;;;;;8.77;3.43;;;;;;;;;;5044716;28;20207;-65
2023/10/04 09:24:09;;;;;;;7.77;3.77;;;;;;;;;;5045572;28;20207;-65
2023/10/04 09:26:37;;;;;;;6.87;3.63;;;;;;;;;;5039525;28;20208;-65
2023/10/04 09:29:06;;;;;;;5.40;3.60;;;;;;;;;;5035120;28;20230;-65
2023/10/04 09:31:46;;;;;;;9.07;3.90;;;;;;;;;;5044211;28;20323;-65
2023/10/04 09:34:14;;;;;;;7.70;4.00;;;;;;;;;;5036613;28;20230;-65
2023/10/04 09:36:42;;;;;;;9.25;3.95;;;;;;;;;;5038225;28;20282;-65
2023/10/04 09:39:11;;;;;;;6.43;3.60;;;;;;;;;;5040042;28;20207;-65
2023/10/04 09:41:43;;;;;;;6.38;3.75;;;;;;;;;;5043986;28;20211;-65
2023/10/04 09:44:29;;;;;;;8.02;3.92;;;;;;;;;;5038263;28;20222;-66
2023/10/04 09:47:03;;;;;;;5.97;3.53;;;;;;;;;;5038591;28;20204;-66
2023/10/04 09:49:32;;;;;;;9.55;3.78;;;;;;;;;;5037449;28;20262;-66
2023/10/04 09:52:00;;;;;;;10.40;3.95;;;;;;;;;;5036670;28;20237;-65
2023/10/04 09:54:28;;;;;;;9.60;3.88;;;;;;;;;;5048339;28;20205;-65
2023/10/04 09:56:56;;;;;;;8.23;3.80;;;;;;;;;;5039178;28;20203;-65
2023/10/04 09:59:23;;;;;;;8.95;3.88;;;;;;;;;;5039599;28;20281;-66
2023/10/04 10:01:54;;;;;;;10.43;3.80;;;;;;;;;;5035591;28;20227;-64
2023/10/04 10:04:26;;;;;;;8.57;3.30;;;;;;;;;;5044826;28;20204;-65
2023/10/04 10:07:10;;;;;;;10.50;4.72;;;;;;;;;;5041276;28;20214;-65
2023/10/04 10:09:42;;;;;;;7.15;3.28;;;;;;;;;;5039149;28;20200;-65
2023/10/04 10:12:10;;;;;;;9.10;3.42;;;;;;;;;;5040202;28;20211;-65
2023/10/04 10:14:37;;;;;;;8.25;3.53;;;;;;;;;;5043722;28;20204;-65
2023/10/04 10:17:04;;;;;;;6.78;2.95;;;;;;;;;;5038177;28;20251;-65
2023/10/04 10:19:33;;;;;;;8.30;3.13;;;;;;;;;;5038658;28;20204;-72
2023/10/04 10:22:05;;;;;;;9.75;3.30;;;;;;;;;;5040714;28;20232;-71
2023/10/04 10:24:32;;;;;;;5.32;3.03;;;;;;;;;;5040535;28;20234;-72
2023/10/04 10:27:09;;;;;;;8.50;3.30;;;;;;;;;;5030636;28;20223;-71
2023/10/04 10:29:37;;;;;;;8.48;3.30;;;;;;;;;;5017669;28;20262;-71
2023/10/04 10:32:09;;;;;;;8.80;3.72;;;;;;;;;;5014537;28;20217;-72
2023/10/04 10:34:38;;;;;;;7.22;3.22;;;;;;;;;;5017888;28;20200;-70
2023/10/04 10:37:17;;;;;;;11.57;3.75;;;;;;;;;;5013955;28;20346;-71
2023/10/04 10:39:45;;;;;;;8.50;3.33;;;;;;;;;;5019219;28;20212;-70
2023/10/04 10:42:13;;;;;;;6.40;3.13;;;;;;;;;;5017785;28;20208;-71
2023/10/04 10:44:40;;;;;;;6.32;3.13;;;;;;;;;;5017571;28;20232;-72
2023/10/04 10:47:14;;;;;;;7.47;3.33;;;;;;;;;;5018325;28;20232;-72
2023/10/04 10:49:55;;;;;;;7.63;3.40;;;;;;;;;;5016806;28;20240;-71
2023/10/04 10:52:41;;;;;;;6.55;2.95;;;;;;;;;;5023085;28;20201;-71
2023/10/04 10:55:16;;;;;;;7.57;3.25;;;;;;;;;;5022031;28;20204;-72
2023/10/04 10:57:44;;;;;;;9.27;3.50;;;;;;;;;;5018681;28;20217;-72
2023/10/04 11:00:18;;;;;;;7.28;3.05;;;;;;;;;;5018487;28;20207;-71
2023/10/04 11:02:46;;;;;;;6.80;2.88;;;;;;;;;;5016921;28;20204;-71
2023/10/04 11:05:16;;;;;;;5.78;2.70;;;;;;;;;;5019534;28;20231;-72
2023/10/04 11:07:44;;;;;;;10.07;2.97;;;;;;;;;;5018849;28;20236;-71
2023/10/04 11:10:15;;;;;;;7.25;3.05;;;;;;;;;;5020487;28;20255;-69
2023/10/04 11:12:43;;;;;;;7.97;2.78;;;;;;;;;;5013609;28;20213;-71
2023/10/04 11:15:11;;;;;;;8.02;3.22;;;;;;;;;;5048528;28;20197;-71
2023/10/04 11:17:39;;;;;;;8.77;2.72;;;;;;;;;;5015278;28;20216;-71
2023/10/04 11:20:11;;;;;;;8.98;2.90;;;;;;;;;;5014761;28;20228;-71
2023/10/04 11:22:40;;;;;;;6.03;2.58;;;;;;;;;;5014522;28;20211;-72
2023/10/04 11:25:11;;;;;;;9.00;3.10;;;;;;;;;;5010628;28;20204;-70
2023/10/04 11:27:40;;;;;;;7.93;3.15;;;;;;;;;;5021956;28;20257;-69
2023/10/04 11:30:09;;;;;;;10.85;2.90;;;;;;;;;;5031619;28;20295;-65
2023/10/04 11:32:36;;;;;;;7.35;2.80;;;;;;;;;;5018982;28;20207;-65
2023/10/04 11:35:08;;;;;;;10.00;2.90;;;;;;;;;;5023424;28;20251;-64
2023/10/04 11:37:39;;;;;;;7.50;3.17;;;;;;;;;;5020025;28;20203;-66
2023/10/04 11:40:12;;;;;;;7.20;2.78;;;;;;;;;;5013848;28;20205;-64
2023/10/04 11:42:41;;;;;;;6.07;2.67;;;;;;;;;;5018290;28;20200;-65
2023/10/04 11:45:21;;;;;;;6.43;2.80;;;;;;;;;;5016882;28;20213;-65
2023/10/04 11:47:59;;;;;;;4.43;2.47;;;;;;;;;;5022011;28;20196;-65
2023/10/04 11:50:27;;;;;;;9.45;2.78;;;;;;;;;;5011440;28;20283;-64
2023/10/04 11:52:56;;;;;;;9.52;3.03;;;;;;;;;;5021917;28;20208;-65
2023/10/04 11:55:27;;;;;;;6.95;2.83;;;;;;;;;;5012841;28;20196;-64
2023/10/04 11:57:55;;;;;;;7.25;3.03;;;;;;;;;;5017251;28;20204;-67
2023/10/04 12:00:22;;;;;;;9.65;3.05;;;;;;;;;;5005767;28;20204;-64
2023/10/04 12:02:49;;;;;;;6.35;2.97;;;;;;;;;;5004662;28;20212;-66
2023/10/04 12:05:17;;;;;;;9.25;3.25;;;;;;;;;;5013920;28;20215;-64
2023/10/04 12:07:44;;;;;;;7.13;3.10;;;;;;;;;;5015288;28;20214;-64
2023/10/04 12:10:13;;;;;;;5.85;2.90;;;;;;;;;;5014238;28;20209;-64
2023/10/04 12:12:42;;;;;;;4.78;2.92;;;;;;;;;;5022256;28;20228;-64
2023/10/04 12:15:09;;;;;;;9.18;3.15;;;;;;;;;;5018093;28;20204;-65
2023/10/04 12:17:37;;;;;;;8.45;3.28;;;;;;;;;;5016772;28;20319;-64
2023/10/04 12:20:06;;;;;;;5.68;2.80;;;;;;;;;;5012739;28;20208;-64
2023/10/04 12:22:33;;;;;;;9.00;2.97;;;;;;;;;;5016690;28;20209;-64
2023/10/04 12:25:00;;;;;;;6.50;3.05;;;;;;;;;;5016474;28;20294;-64
2023/10/04 12:27:27;;;;;;;7.63;3.00;;;;;;;;;;5016124;28;20215;-64
2023/10/04 12:29:56;;;;;;;8.00;3.05;;;;;;;;;;5015546;28;20311;-64
2023/10/04 12:32:24;;;;;;;6.82;3.20;;;;;;;;;;5018737;28;20244;-64
2023/10/04 12:34:51;;;;;;;7.30;2.88;;;;;;;;;;5014544;28;20210;-64
2023/10/04 12:37:18;;;;;;;4.90;3.00;;;;;;;;;;5018107;28;20215;-64
2023/10/04 12:39:45;;;;;;;9.07;3.30;;;;;;;;;;5018660;28;20211;-64
2023/10/04 12:42:13;;;;;;;8.98;3.08;;;;;;;;;;5019508;28;20212;-64
2023/10/04 12:44:41;;;;;;;6.18;3.17;;;;;;;;;;5019485;28;20580;-66
2023/10/04 12:47:12;;;;;;;7.45;3.20;;;;;;;;;;5016556;28;20207;-64
2023/10/04 12:49:40;;;;;;;5.43;3.10;;;;;;;;;;5017661;28;20247;-65
2023/10/04 12:52:07;;;;;;;6.75;3.15;;;;;;;;;;5016953;28;20234;-65
2023/10/04 12:54:34;;;;;;;5.03;2.90;;;;;;;;;;5023377;28;20250;-66
2023/10/04 12:57:02;;;;;;;7.15;3.20;;;;;;;;;;5018900;28;20208;-64
2023/10/04 12:59:29;;;;;;;6.00;2.95;;;;;;;;;;5017429;28;20212;-64
2023/10/04 13:01:57;;;;;;;6.35;3.05;;;;;;;;;;5018970;28;20223;-64
2023/10/04 13:04:26;;;;;;;7.35;3.03;;;;;;;;;;5026989;28;20196;-64
2023/10/04 13:06:55;;;;;;;6.75;3.33;;;;;;;;;;5021427;28;20209;-65
2023/10/04 13:09:27;;;;;;;5.13;2.72;;;;;;;;;;5013995;28;20227;-65
2023/10/04 13:11:55;;;;;;;6.57;3.17;;;;;;;;;;5020049;28;20220;-66
2023/10/04 13:14:22;;;;;;;6.95;3.03;;;;;;;;;;5023707;28;20235;-64
2023/10/04 13:16:50;;;;;;;5.72;2.95;;;;;;;;;;5025505;28;20213;-65
2023/10/04 13:19:18;;;;;;;6.38;2.80;;;;;;;;;;5017531;28;20215;-65
2023/10/04 13:21:46;;;;;;;7.03;2.92;;;;;;;;;;5022076;28;20192;-64
2023/10/04 13:24:14;;;;;;;7.00;3.10;;;;;;;;;;5022037;28;20214;-64
2023/10/04 13:26:45;;;;;;;6.35;3.25;;;;;;;;;;5019792;28;20205;-64
2023/10/04 13:29:14;;;;;;;4.90;2.80;;;;;;;;;;5020314;28;20204;-64
2023/10/04 13:31:42;;;;;;;6.10;3.40;;;;;;;;;;5019906;28;20224;-64
2023/10/04 13:34:09;;;;;;;9.52;3.53;;;;;;;;;;5020897;28;20193;-64
2023/10/04 13:36:36;;;;;;;5.93;2.95;;;;;;;;;;5018565;28;20200;-64
2023/10/04 13:39:05;;;;;;;4.35;2.92;;;;;;;;;;5024616;28;20210;-65
2023/10/04 13:41:32;;;;;;;8.07;2.80;;;;;;;;;;5017110;28;20215;-64
2023/10/04 13:43:59;;;;;;;5.53;3.03;;;;;;;;;;5015097;28;20209;-64
2023/10/04 13:46:26;;;;;;;5.95;3.30;;;;;;;;;;5019010;28;20207;-65
2023/10/04 13:48:54;;;;;;;5.28;3.30;;;;;;;;;;5017390;28;20240;-65
2023/10/04 13:51:22;;;;;;;6.20;3.42;;;;;;;;;;5020877;28;20228;-72
2023/10/04 13:53:49;;;;;;;7.43;3.40;;;;;;;;;;5011494;28;20216;-72
2023/10/04 13:56:18;;;;;;;6.35;3.30;;;;;;;;;;5019723;28;20258;-72
2023/10/04 13:58:45;;;;;;;7.55;3.60;;;;;;;;;;5019577;28;20207;-72
2023/10/04 14:01:14;;;;;;;7.35;3.30;;;;;;;;;;5021404;28;20201;-73
2023/10/04 14:03:42;;;;;;;6.07;3.22;;;;;;;;;;5018138;28;20281;-72
2023/10/04 14:06:12;;;;;;;4.45;3.20;;;;;;;;;;5022502;28;20197;-70
2023/10/04 14:08:39;;;;;;;6.93;3.28;;;;;;;;;;5023356;28;20209;-72
2023/10/04 14:11:06;;;;;;;6.85;3.55;;;;;;;;;;5020457;28;20214;-72
2023/10/04 14:13:36;;;;;;;9.07;5.32;;;;;;;;;;5018142;28;20220;-72
2023/10/04 14:16:04;;;;;;;11.18;5.78;;;;;;;;;;5014297;28;20279;-72
2023/10/04 14:18:31;;;;;;;10.35;7.65;;;;;;;;;;5016904;28;20205;-73
2023/10/04 14:20:58;;;;;;;6.88;3.40;;;;;;;;;;5016015;28;20201;-73
2023/10/04 14:23:25;;;;;;;8.15;3.70;;;;;;;;;;5018488;28;20204;-73
2023/10/04 14:25:54;;;;;;;8.23;3.60;;;;;;;;;;5020547;28;20208;-71
2023/10/04 14:28:22;;;;;;;10.55;3.47;;;;;;;;;;5016737;28;20204;-72
2023/10/04 14:30:50;;;;;;;6.35;3.75;;;;;;;;;;5018951;28;20214;-73
2023/10/04 14:33:33;;;;;;;5.78;3.70;;;;;;;;;;5018270;28;20226;-73
2023/10/04 14:36:00;;;;;;;8.75;3.67;;;;;;;;;;5020939;28;20201;-74
2023/10/04 14:38:28;;;;;;;5.60;3.38;;;;;;;;;;5015933;28;20291;-74
2023/10/04 14:40:56;;;;;;;7.40;3.67;;;;;;;;;;5020182;28;20208;-72
2023/10/04 14:43:23;;;;;;;7.25;3.80;;;;;;;;;;5019906;28;20308;-74
2023/10/04 14:45:52;;;;;;;7.53;3.63;;;;;;;;;;5023970;28;20200;-72
2023/10/04 14:48:20;;;;;;;7.68;3.88;;;;;;;;;;5019520;28;20253;-74
2023/10/04 14:50:52;;;;;;;6.00;3.38;;;;;;;;;;5019608;28;20267;-73
2023/10/04 14:53:19;;;;;;;6.13;3.33;;;;;;;;;;5024404;28;20229;-73
2023/10/04 14:55:48;;;;;;;8.43;3.67;;;;;;;;;;5020925;28;20276;-73
2023/10/04 14:58:15;;;;;;;6.13;3.72;;;;;;;;;;5020755;28;20231;-73
2023/10/04 15:00:42;;;;;;;6.68;3.50;;;;;;;;;;5020759;28;20212;-73
2023/10/04 15:03:11;;;;;;;7.38;3.40;;;;;;;;;;5020927;28;20203;-73
2023/10/04 15:05:39;;;;;;;9.25;3.72;;;;;;;;;;5017654;28;20205;-73
2023/10/04 15:08:06;;;;;;;9.48;3.92;;;;;;;;;;5022342;28;20200;-73
2023/10/04 15:10:33;;;;;;;7.47;3.30;;;;;;;;;;5020783;28;20220;-74